^^
WesterhopeWX Station Historical Data
 
Daily Summary for August 19, 2019 Units:  Metric    English   Both
Daily Weekly Monthly Yearly Custom
  Current: High: Low: Average:
Temperature: 12.8 °C 18.2 °C 12.8 °C 14.8 °C
Dew Point: 9.2 °C 11.1 °C 9.2 °C 10.1 °C
Humidity: 79% 86% 57% 74%
Wind Speed: 4.7km/h 20.9km/h 0.0km/h 6.9km/h
Wind Gust: 9.7km/h 32.2km/h - -
WindSW - - SW
Pressure: 1009.4 hPa 1009.4 hPa 998.9 hPa -
Precipitation: 2.3 mm      
Historical Graphs
 
 
Tabular Data for August 19, 2019
Time Temperature Dew Point Pressure Wind Wind Speed Wind Gust Humidity Rainfall Rate (Hourly) solar
00:00 13.7 °C 10.1 °C 998.9 hPa SW 11.1 km/h 14.5 km/h 79% 0.0 mm 0.00 W/m2
00:05 13.6 °C 10.2 °C 999.2 hPa WSW 4.7 km/h 12.9 km/h 80% 0.0 mm 0.00 W/m2
00:10 13.6 °C 10.2 °C 999.2 hPa WSW 1.4 km/h 4.8 km/h 80% 0.0 mm 0.00 W/m2
00:15 13.6 °C 10.2 °C 999.2 hPa SW 3.2 km/h 6.4 km/h 80% 0.0 mm 0.00 W/m2
00:20 13.6 °C 10.2 °C 999.5 hPa SW 6.4 km/h 8.0 km/h 80% 0.0 mm 0.00 W/m2
00:25 13.6 °C 10.2 °C 999.5 hPa WSW 4.7 km/h 11.3 km/h 80% 0.0 mm 0.00 W/m2
00:30 13.5 °C 10.1 °C 999.5 hPa SW 4.7 km/h 9.7 km/h 80% 0.0 mm 0.00 W/m2
00:35 13.4 °C 10.0 °C 999.5 hPa SW 1.4 km/h 6.4 km/h 80% 0.0 mm 0.00 W/m2
00:40 13.4 °C 10.2 °C 999.5 hPa SW 1.4 km/h 9.7 km/h 81% 0.0 mm 0.00 W/m2
00:45 13.4 °C 10.2 °C 999.5 hPa SW 4.7 km/h 14.5 km/h 81% 0.0 mm 0.00 W/m2
00:50 13.3 °C 10.1 °C 999.5 hPa SW 6.4 km/h 8.0 km/h 81% 0.0 mm 0.00 W/m2
00:55 13.3 °C 10.1 °C 999.5 hPa WSW 4.7 km/h 8.0 km/h 81% 0.0 mm 0.00 W/m2
01:00 13.3 °C 10.1 °C 999.5 hPa SSW 4.7 km/h 11.3 km/h 81% 0.0 mm 0.00 W/m2
01:05 13.3 °C 10.1 °C 999.5 hPa SW 3.2 km/h 11.3 km/h 81% 0.0 mm 0.00 W/m2
01:10 13.3 °C 10.3 °C 999.5 hPa SW 6.4 km/h 8.0 km/h 82% 0.0 mm 0.00 W/m2
01:15 13.3 °C 10.3 °C 999.9 hPa SSW 4.7 km/h 8.0 km/h 82% 0.0 mm 0.00 W/m2
01:20 13.3 °C 10.5 °C 999.9 hPa SW 3.2 km/h 6.4 km/h 83% 0.0 mm 0.00 W/m2
01:25 13.3 °C 10.5 °C 999.9 hPa West 3.2 km/h 11.3 km/h 83% 0.0 mm 0.00 W/m2
01:30 13.3 °C 10.5 °C 999.9 hPa SW 11.1 km/h 12.9 km/h 83% 0.0 mm 0.00 W/m2
01:35 13.2 °C 10.6 °C 999.9 hPa WSW 3.2 km/h 6.4 km/h 84% 0.0 mm 0.00 W/m2
01:40 13.1 °C 10.5 °C 999.9 hPa SW 3.2 km/h 8.0 km/h 84% 0.0 mm 0.00 W/m2
01:45 13.1 °C 10.6 °C 1000.2 hPa SW 4.7 km/h 12.9 km/h 85% 0.0 mm 0.00 W/m2
01:50 13.1 °C 10.6 °C 1000.2 hPa SSW 3.2 km/h 11.3 km/h 85% 0.0 mm 0.00 W/m2
01:55 13.1 °C 10.5 °C 999.9 hPa SW 11.1 km/h 11.3 km/h 84% 0.0 mm 0.00 W/m2
02:00 13.2 °C 10.6 °C 999.9 hPa SW 4.7 km/h 9.7 km/h 84% 0.0 mm 0.00 W/m2
02:05 13.2 °C 10.4 °C 999.9 hPa SSW 4.7 km/h 25.7 km/h 83% 0.0 mm 0.00 W/m2
02:10 13.3 °C 10.5 °C 999.9 hPa SW 7.9 km/h 11.3 km/h 83% 0.0 mm 0.00 W/m2
02:15 13.3 °C 10.5 °C 999.9 hPa West 3.2 km/h 12.9 km/h 83% 0.0 mm 0.00 W/m2
02:20 13.2 °C 10.4 °C 999.9 hPa SSW 6.4 km/h 8.0 km/h 83% 0.0 mm 0.00 W/m2
02:25 13.2 °C 10.4 °C 999.9 hPa WSW 4.7 km/h 12.9 km/h 83% 0.0 mm 0.00 W/m2
02:30 13.2 °C 10.4 °C 999.9 hPa WSW 7.9 km/h 12.9 km/h 83% 0.0 mm 0.00 W/m2
02:35 13.2 °C 10.4 °C 999.9 hPa WSW 4.7 km/h 9.7 km/h 83% 0.0 mm 0.00 W/m2
02:40 13.2 °C 10.4 °C 999.9 hPa South 7.9 km/h 14.5 km/h 83% 0.0 mm 0.00 W/m2
02:45 13.2 °C 10.4 °C 999.9 hPa SW 9.7 km/h 17.7 km/h 83% 0.0 mm 0.00 W/m2
02:50 13.3 °C 10.7 °C 1000.2 hPa WSW 6.4 km/h 16.1 km/h 84% 0.0 mm 0.00 W/m2
02:55 13.3 °C 10.7 °C 999.9 hPa SW 4.7 km/h 12.9 km/h 84% 0.0 mm 0.00 W/m2
03:00 13.3 °C 10.7 °C 1000.2 hPa SSW 4.7 km/h 16.1 km/h 84% 0.0 mm 0.00 W/m2
03:05 13.2 °C 10.7 °C 1000.2 hPa SW 4.7 km/h 12.9 km/h 85% 0.0 mm 0.00 W/m2
03:10 13.2 °C 10.7 °C 1000.2 hPa WSW 6.4 km/h 16.1 km/h 85% 0.0 mm 0.00 W/m2
03:15 13.2 °C 10.6 °C 1000.2 hPa SSW 13.0 km/h 16.1 km/h 84% 0.0 mm 0.00 W/m2
03:20 13.2 °C 10.6 °C 1000.2 hPa SSW 6.4 km/h 9.7 km/h 84% 0.0 mm 0.00 W/m2
03:25 13.2 °C 10.6 °C 1000.2 hPa SW 3.2 km/h 9.7 km/h 84% 0.0 mm 0.00 W/m2
03:30 13.2 °C 10.6 °C 1000.2 hPa WSW 17.7 km/h 17.7 km/h 84% 0.0 mm 0.00 W/m2
03:35 13.1 °C 10.5 °C 1000.2 hPa WSW 3.2 km/h 17.7 km/h 84% 0.0 mm 0.00 W/m2
03:40 13.1 °C 10.5 °C 1000.2 hPa WSW 4.7 km/h 9.7 km/h 84% 0.0 mm 0.00 W/m2
03:45 13.1 °C 10.5 °C 1000.2 hPa WSW 1.4 km/h 11.3 km/h 84% 0.0 mm 0.00 W/m2
03:50 13.0 °C 10.4 °C 1000.2 hPa SSW 6.4 km/h 9.7 km/h 84% 0.0 mm 0.00 W/m2
03:55 13.0 °C 10.4 °C 1000.2 hPa SSW 4.7 km/h 12.9 km/h 84% 0.0 mm 0.00 W/m2
04:00 13.0 °C 10.4 °C 1000.2 hPa West 1.4 km/h 14.5 km/h 84% 0.0 mm 0.00 W/m2
04:05 12.9 °C 10.3 °C 1000.2 hPa SW 4.7 km/h 11.3 km/h 84% 0.0 mm 0.00 W/m2
04:10 12.9 °C 10.3 °C 1000.2 hPa WSW 9.7 km/h 11.3 km/h 84% 0.0 mm 0.00 W/m2
04:15 12.9 °C 10.3 °C 1000.2 hPa SW 4.7 km/h 11.3 km/h 84% 0.0 mm 0.00 W/m2
04:20 12.9 °C 10.4 °C 1000.2 hPa SSW 7.9 km/h 17.7 km/h 85% 0.0 mm 0.00 W/m2
04:25 12.9 °C 10.4 °C 1000.2 hPa SW 13.0 km/h 14.5 km/h 85% 0.0 mm 0.00 W/m2
04:30 12.9 °C 10.4 °C 1000.2 hPa SSW 4.7 km/h 8.0 km/h 85% 0.0 mm 0.00 W/m2
04:35 12.9 °C 10.4 °C 1000.2 hPa SW 6.4 km/h 9.7 km/h 85% 0.0 mm 0.00 W/m2
04:40 13.0 °C 10.5 °C 1000.6 hPa SW 7.9 km/h 17.7 km/h 85% 0.0 mm 0.00 W/m2
04:45 13.0 °C 10.5 °C 1000.6 hPa WSW 7.9 km/h 11.3 km/h 85% 0.0 mm 0.00 W/m2
04:50 13.0 °C 10.7 °C 1000.6 hPa SW 17.7 km/h 17.7 km/h 86% 0.0 mm 0.00 W/m2
04:55 13.1 °C 10.8 °C 1000.6 hPa SSW 4.7 km/h 12.9 km/h 86% 0.0 mm 0.00 W/m2
05:00 13.1 °C 10.6 °C 1000.6 hPa SW 6.4 km/h 14.5 km/h 85% 0.0 mm 0.00 W/m2
05:05 13.1 °C 10.6 °C 1000.9 hPa SW 9.7 km/h 16.1 km/h 85% 0.0 mm 0.00 W/m2
05:10 13.2 °C 10.7 °C 1001.2 hPa WNW 1.4 km/h 11.3 km/h 85% 0.0 mm 0.00 W/m2
05:15 13.2 °C 10.7 °C 1001.2 hPa SSW 9.7 km/h 19.3 km/h 85% 0.0 mm 0.00 W/m2
05:20 13.2 °C 10.7 °C 1001.2 hPa WSW 3.2 km/h 6.4 km/h 85% 0.0 mm 0.00 W/m2
05:25 13.2 °C 10.7 °C 1001.6 hPa WSW 4.7 km/h 14.5 km/h 85% 0.3 mm 0.00 W/m2
05:30 13.2 °C 10.7 °C 1001.2 hPa Calm   4.8 km/h 85% 0.3 mm 0.00 W/m2
05:35 13.1 °C 10.6 °C 1001.6 hPa South 4.7 km/h 9.7 km/h 85% 0.3 mm 0.00 W/m2
05:40 13.1 °C 10.6 °C 1001.6 hPa Calm   14.5 km/h 85% 0.3 mm 0.00 W/m2
05:45 13.1 °C 10.6 °C 1001.6 hPa SW 6.4 km/h 12.9 km/h 85% 0.3 mm 0.00 W/m2
05:50 13.1 °C 10.6 °C 1001.9 hPa SW 1.4 km/h 9.7 km/h 85% 0.3 mm 0.00 W/m2
05:55 13.1 °C 10.6 °C 1001.9 hPa WSW 1.4 km/h 8.0 km/h 85% 0.3 mm 0.00 W/m2
06:00 13.1 °C 10.6 °C 1001.9 hPa SSW 3.2 km/h 14.5 km/h 85% 0.3 mm 0.00 W/m2
06:05 13.1 °C 10.5 °C 1001.9 hPa SSW 7.9 km/h 8.0 km/h 84% 0.3 mm 7.00 W/m2
06:10 13.1 °C 10.5 °C 1001.9 hPa SSW 3.2 km/h 8.0 km/h 84% 0.3 mm 12.00 W/m2
06:15 12.9 °C 10.3 °C 1001.9 hPa SW 3.2 km/h 11.3 km/h 84% 0.3 mm 14.00 W/m2
06:20 12.9 °C 10.3 °C 1001.9 hPa West 1.4 km/h 9.7 km/h 84% 0.3 mm 19.00 W/m2
06:25 12.9 °C 10.4 °C 1002.3 hPa WSW 6.4 km/h 6.4 km/h 85% 0.0 mm 19.00 W/m2
06:30 12.8 °C 10.3 °C 1002.3 hPa SW 4.7 km/h 6.4 km/h 85% 0.0 mm 23.00 W/m2
06:35 12.8 °C 10.3 °C 1002.3 hPa WSW 1.4 km/h 12.9 km/h 85% 0.0 mm 25.00 W/m2
06:40 12.8 °C 10.3 °C 1002.6 hPa SSW 7.9 km/h 9.7 km/h 85% 0.0 mm 28.00 W/m2
06:45 12.8 °C 10.2 °C 1002.6 hPa SW 7.9 km/h 8.0 km/h 84% 0.0 mm 26.00 W/m2
06:50 12.9 °C 10.3 °C 1002.6 hPa West 4.7 km/h 6.4 km/h 84% 0.0 mm 23.00 W/m2
06:55 12.9 °C 10.3 °C 1002.9 hPa SW 1.4 km/h 11.3 km/h 84% 0.0 mm 35.00 W/m2
07:00 12.9 °C 10.3 °C 1002.9 hPa SW 6.4 km/h 11.3 km/h 84% 0.0 mm 40.00 W/m2
07:05 12.9 °C 10.1 °C 1002.9 hPa SSW 4.7 km/h 19.3 km/h 83% 0.0 mm 47.00 W/m2
07:10 12.9 °C 10.1 °C 1002.9 hPa WSW 4.7 km/h 12.9 km/h 83% 0.0 mm 62.00 W/m2
07:15 13.0 °C 10.0 °C 1002.9 hPa SW 4.7 km/h 9.7 km/h 82% 0.0 mm 74.00 W/m2
07:20 13.1 °C 10.1 °C 1002.9 hPa SW 3.2 km/h 6.4 km/h 82% 0.0 mm 84.00 W/m2
07:25 13.1 °C 10.1 °C 1002.9 hPa SW 1.4 km/h 6.4 km/h 82% 0.0 mm 113.00 W/m2
07:30 13.2 °C 10.2 °C 1002.9 hPa SW 4.7 km/h 9.7 km/h 82% 0.0 mm 135.00 W/m2
07:35 13.3 °C 10.1 °C 1002.9 hPa West 1.4 km/h 11.3 km/h 81% 0.0 mm 98.00 W/m2
07:40 13.3 °C 10.1 °C 1002.9 hPa SW 6.4 km/h 12.9 km/h 81% 0.0 mm 91.00 W/m2
07:45 13.4 °C 10.0 °C 1002.9 hPa SW 3.2 km/h 8.0 km/h 80% 0.0 mm 162.00 W/m2
07:50 13.4 °C 10.0 °C 1002.9 hPa WSW 3.2 km/h 16.1 km/h 80% 0.0 mm 160.00 W/m2
07:55 13.6 °C 10.2 °C 1002.9 hPa SW 1.4 km/h 16.1 km/h 80% 0.0 mm 178.00 W/m2
08:00 13.6 °C 10.0 °C 1002.9 hPa West 3.2 km/h 11.3 km/h 79% 0.0 mm 132.00 W/m2
08:05 13.7 °C 10.1 °C 1002.9 hPa Calm   11.3 km/h 79% 0.0 mm 132.00 W/m2
08:10 13.7 °C 9.9 °C 1002.9 hPa WNW 4.7 km/h 11.3 km/h 78% 0.0 mm 127.00 W/m2
08:15 13.7 °C 9.9 °C 1003.3 hPa NW 4.7 km/h 16.1 km/h 78% 0.0 mm 139.00 W/m2
08:20 13.8 °C 10.0 °C 1003.3 hPa SSW 4.7 km/h 11.3 km/h 78% 0.0 mm 144.00 W/m2
08:25 13.9 °C 9.9 °C 1003.3 hPa SW 7.9 km/h 14.5 km/h 77% 0.0 mm 144.00 W/m2
08:30 14.0 °C 10.0 °C 1003.3 hPa SW 4.7 km/h 12.9 km/h 77% 0.0 mm 155.00 W/m2
08:35 14.1 °C 10.1 °C 1003.6 hPa SW 4.7 km/h 17.7 km/h 77% 0.0 mm 134.00 W/m2
08:40 14.1 °C 10.1 °C 1003.6 hPa WSW 3.2 km/h 14.5 km/h 77% 0.0 mm 128.00 W/m2
08:45 14.1 °C 10.1 °C 1003.6 hPa West 3.2 km/h 9.7 km/h 77% 0.0 mm 134.00 W/m2
08:50 14.0 °C 10.0 °C 1003.6 hPa SSW 14.3 km/h 17.7 km/h 77% 0.0 mm 146.00 W/m2
08:55 14.0 °C 10.2 °C 1003.9 hPa South 3.2 km/h 6.4 km/h 78% 0.0 mm 155.00 W/m2
09:00 14.0 °C 10.0 °C 1003.9 hPa SSW 6.4 km/h 12.9 km/h 77% 0.0 mm 148.00 W/m2
09:05 14.0 °C 10.2 °C 1003.9 hPa SW 6.4 km/h 8.0 km/h 78% 0.0 mm 167.00 W/m2
09:10 14.1 °C 10.1 °C 1003.9 hPa SSW 4.7 km/h 6.4 km/h 77% 0.0 mm 183.00 W/m2
09:15 14.1 °C 9.9 °C 1003.9 hPa SW 16.3 km/h 19.3 km/h 76% 0.0 mm 192.00 W/m2
09:20 14.1 °C 10.1 °C 1003.9 hPa WSW 4.7 km/h 14.5 km/h 77% 0.0 mm 213.00 W/m2
09:25 14.2 °C 10.2 °C 1003.9 hPa SW 7.9 km/h 17.7 km/h 77% 0.0 mm 225.00 W/m2
09:30 14.2 °C 10.0 °C 1003.9 hPa WSW 14.3 km/h 14.5 km/h 76% 0.0 mm 223.00 W/m2
09:35 14.3 °C 10.1 °C 1003.9 hPa SSW 3.2 km/h 16.1 km/h 76% 0.0 mm 218.00 W/m2
09:40 14.4 °C 10.0 °C 1003.9 hPa SW 13.0 km/h 17.7 km/h 75% 0.0 mm 223.00 W/m2
09:45 14.6 °C 10.2 °C 1003.9 hPa SSW 11.1 km/h 17.7 km/h 75% 0.0 mm 225.00 W/m2
09:50 14.7 °C 10.3 °C 1004.3 hPa WSW 3.2 km/h 14.5 km/h 75% 0.0 mm 237.00 W/m2
09:55 14.9 °C 10.3 °C 1004.3 hPa SSW 9.7 km/h 17.7 km/h 74% 0.0 mm 306.00 W/m2
10:00 15.3 °C 10.5 °C 1004.3 hPa SW 19.5 km/h 19.3 km/h 73% 0.0 mm 265.00 W/m2
10:05 15.1 °C 10.1 °C 1004.3 hPa SW 6.4 km/h 19.3 km/h 72% 0.3 mm 167.00 W/m2
10:10 15.1 °C 9.9 °C 1004.3 hPa WSW 1.4 km/h 17.7 km/h 71% 0.3 mm 190.00 W/m2
10:15 15.1 °C 9.9 °C 1004.3 hPa SSW 4.7 km/h 17.7 km/h 71% 0.3 mm 227.00 W/m2
10:20 15.2 °C 9.5 °C 1004.6 hPa SW 7.9 km/h 16.1 km/h 69% 0.3 mm 223.00 W/m2
10:25 15.2 °C 9.5 °C 1004.6 hPa WSW 16.3 km/h 17.7 km/h 69% 0.3 mm 220.00 W/m2
10:30 15.2 °C 9.5 °C 1004.6 hPa West 13.0 km/h 20.9 km/h 69% 0.3 mm 211.00 W/m2
10:35 15.2 °C 9.5 °C 1004.6 hPa SE 6.4 km/h 11.3 km/h 69% 0.3 mm 192.00 W/m2
10:40 15.3 °C 9.6 °C 1004.6 hPa SSW 14.3 km/h 20.9 km/h 69% 0.3 mm 197.00 W/m2
10:45 15.3 °C 9.6 °C 1004.6 hPa SW 3.2 km/h 9.7 km/h 69% 0.3 mm 220.00 W/m2
10:50 15.3 °C 9.9 °C 1004.6 hPa South 4.7 km/h 12.9 km/h 70% 0.3 mm 216.00 W/m2
10:55 15.3 °C 9.4 °C 1005.0 hPa ESE 3.2 km/h 24.1 km/h 68% 0.3 mm 225.00 W/m2
11:00 15.4 °C 9.5 °C 1005.0 hPa SW 9.7 km/h 16.1 km/h 68% 0.3 mm 230.00 W/m2
11:05 15.4 °C 9.5 °C 1005.0 hPa South 3.2 km/h 19.3 km/h 68% 0.0 mm 155.00 W/m2
11:10 15.4 °C 9.7 °C 1005.0 hPa SSW 7.9 km/h 12.9 km/h 69% 0.0 mm 165.00 W/m2
11:15 15.4 °C 9.7 °C 1005.3 hPa WSW 14.3 km/h 17.7 km/h 69% 0.0 mm 178.00 W/m2
11:20 15.4 °C 10.2 °C 1005.3 hPa WNW 3.2 km/h 12.9 km/h 71% 0.0 mm 202.00 W/m2
11:25 15.3 °C 10.5 °C 1005.3 hPa WSW 1.4 km/h 12.9 km/h 73% 0.0 mm 227.00 W/m2
11:30 15.3 °C 10.7 °C 1005.3 hPa WSW 4.7 km/h 14.5 km/h 74% 0.0 mm 229.00 W/m2
11:35 15.2 °C 10.6 °C 1005.3 hPa SSW 7.9 km/h 19.3 km/h 74% 0.0 mm 244.00 W/m2
11:40 15.2 °C 10.8 °C 1005.3 hPa South 11.1 km/h 19.3 km/h 75% 0.0 mm 253.00 W/m2
11:45 15.4 °C 11.0 °C 1005.3 hPa SW 4.7 km/h 14.5 km/h 75% 0.0 mm 206.00 W/m2
11:50 15.6 °C 11.0 °C 1005.6 hPa SSW 6.4 km/h 12.9 km/h 74% 0.0 mm 144.00 W/m2
11:55 15.5 °C 10.5 °C 1005.6 hPa SSW 7.9 km/h 24.1 km/h 72% 0.0 mm 149.00 W/m2
12:00 15.4 °C 10.2 °C 1005.6 hPa South 1.4 km/h 19.3 km/h 71% 0.0 mm 149.00 W/m2
12:05 15.5 °C 10.3 °C 1005.6 hPa SW 1.4 km/h 11.3 km/h 71% 0.0 mm 188.00 W/m2
12:10 15.7 °C 10.5 °C 1005.6 hPa SW 3.2 km/h 20.9 km/h 71% 0.3 mm 267.00 W/m2
12:15 15.8 °C 10.6 °C 1005.6 hPa WSW 1.4 km/h 17.7 km/h 71% 0.3 mm 288.00 W/m2
12:20 16.2 °C 10.9 °C 1005.6 hPa SSW 7.9 km/h 20.9 km/h 71% 0.3 mm 334.00 W/m2
12:25 16.7 °C 11.0 °C 1005.6 hPa West 6.4 km/h 12.9 km/h 69% 0.3 mm 185.00 W/m2
12:30 17.1 °C 11.1 °C 1005.6 hPa SW 1.4 km/h 6.4 km/h 68% 0.3 mm 139.00 W/m2
12:35 16.9 °C 10.5 °C 1005.6 hPa SW 7.9 km/h 14.5 km/h 66% 0.3 mm 135.00 W/m2
12:40 16.7 °C 10.3 °C 1005.6 hPa SSW 6.4 km/h 12.9 km/h 66% 0.3 mm 230.00 W/m2
12:45 17.2 °C 10.3 °C 1006.0 hPa SSW 6.4 km/h 11.3 km/h 64% 0.3 mm 299.00 W/m2
12:50 17.1 °C 9.8 °C 1006.0 hPa SW 4.7 km/h 19.3 km/h 62% 0.3 mm 279.00 W/m2
12:55 17.2 °C 10.8 °C 1006.0 hPa NNE 3.2 km/h 17.7 km/h 66% 0.3 mm 313.00 W/m2
13:00 17.2 °C 11.0 °C 1006.0 hPa North 7.9 km/h 19.3 km/h 67% 0.3 mm 181.00 W/m2
13:05 16.9 °C 10.5 °C 1006.0 hPa NW 1.4 km/h 19.3 km/h 66% 0.3 mm 120.00 W/m2
13:10 16.9 °C 10.0 °C 1006.0 hPa South 19.5 km/h 19.3 km/h 64% 0.0 mm 121.00 W/m2
13:15 16.8 °C 10.2 °C 1006.3 hPa West 14.3 km/h 14.5 km/h 65% 0.3 mm 153.00 W/m2
13:20 16.6 °C 10.2 °C 1006.3 hPa South 6.4 km/h 12.9 km/h 66% 0.3 mm 142.00 W/m2
13:25 16.7 °C 10.1 °C 1006.3 hPa SSW 13.0 km/h 14.5 km/h 65% 0.3 mm 264.00 W/m2
13:30 16.5 °C 9.7 °C 1006.3 hPa SSW 7.9 km/h 24.1 km/h 64% 0.3 mm 237.00 W/m2
13:35 16.7 °C 9.9 °C 1006.3 hPa SW 11.1 km/h 20.9 km/h 64% 0.3 mm 193.00 W/m2
13:40 16.6 °C 9.5 °C 1006.3 hPa WSW 6.4 km/h 22.5 km/h 63% 0.3 mm 185.00 W/m2
13:45 16.4 °C 9.3 °C 1006.3 hPa WSW 14.3 km/h 20.9 km/h 63% 0.3 mm 350.00 W/m2
13:50 16.3 °C 9.7 °C 1006.3 hPa SW 7.9 km/h 19.3 km/h 65% 0.3 mm 306.00 W/m2
13:55 16.2 °C 9.8 °C 1006.3 hPa SSW 13.0 km/h 17.7 km/h 66% 0.3 mm 213.00 W/m2
14:00 16.2 °C 10.1 °C 1006.3 hPa SW 7.9 km/h 9.7 km/h 67% 0.3 mm 193.00 W/m2
14:05 16.2 °C 10.1 °C 1006.7 hPa SSW 3.2 km/h 12.9 km/h 67% 0.3 mm 251.00 W/m2
14:10 16.4 °C 10.0 °C 1006.3 hPa SSW 6.4 km/h 14.5 km/h 66% 0.3 mm 214.00 W/m2
14:15 17.1 °C 10.9 °C 1006.3 hPa Calm   14.5 km/h 67% 0.3 mm 309.00 W/m2
14:20 17.3 °C 10.2 °C 1006.3 hPa West 1.4 km/h 14.5 km/h 63% 0.3 mm 128.00 W/m2
14:25 16.9 °C 10.0 °C 1006.7 hPa West 6.4 km/h 20.9 km/h 64% 0.3 mm 225.00 W/m2
14:30 16.5 °C 10.4 °C 1006.3 hPa SW 11.1 km/h 20.9 km/h 67% 0.3 mm 225.00 W/m2
14:35 16.9 °C 10.7 °C 1006.7 hPa SW 9.7 km/h 14.5 km/h 67% 0.3 mm 271.00 W/m2
14:40 17.3 °C 9.9 °C 1006.3 hPa WSW 7.9 km/h 14.5 km/h 62% 0.3 mm 636.00 W/m2
14:45 17.6 °C 10.0 °C 1006.7 hPa West 4.7 km/h 14.5 km/h 61% 0.3 mm 179.00 W/m2
14:50 17.7 °C 10.1 °C 1006.7 hPa WSW 1.4 km/h 14.5 km/h 61% 0.3 mm 315.00 W/m2
14:55 17.9 °C 10.3 °C 1006.7 hPa West 16.3 km/h 32.2 km/h 61% 0.3 mm 315.00 W/m2
15:00 17.9 °C 9.8 °C 1006.7 hPa WSW 14.3 km/h 16.1 km/h 59% 0.3 mm 352.00 W/m2
15:05 17.8 °C 9.9 °C 1006.7 hPa SSW 6.4 km/h 24.1 km/h 60% 0.3 mm 680.00 W/m2
15:10 17.9 °C 9.5 °C 1007.0 hPa SSW 17.7 km/h 17.7 km/h 58% 0.3 mm 687.00 W/m2
15:15 17.8 °C 9.4 °C 1007.0 hPa WSW 20.9 km/h 29.0 km/h 58% 0.0 mm 744.00 W/m2
15:20 17.6 °C 9.7 °C 1007.0 hPa SW 7.9 km/h 14.5 km/h 60% 0.0 mm 186.00 W/m2
15:25 17.8 °C 9.7 °C 1007.0 hPa SSW 14.3 km/h 16.1 km/h 59% 0.0 mm 691.00 W/m2
15:30 18.1 °C 9.4 °C 1007.0 hPa SSW 13.0 km/h 22.5 km/h 57% 0.0 mm 770.00 W/m2
15:35 17.5 °C 9.6 °C 1007.0 hPa SW 7.9 km/h 16.1 km/h 60% 0.0 mm 172.00 W/m2
15:40 17.3 °C 9.7 °C 1007.0 hPa SW 20.9 km/h 22.5 km/h 61% 0.0 mm 153.00 W/m2
15:45 17.8 °C 9.9 °C 1007.0 hPa SSW 6.4 km/h 17.7 km/h 60% 0.0 mm 671.00 W/m2
15:50 18.2 °C 10.1 °C 1007.0 hPa SSW 4.7 km/h 9.7 km/h 59% 0.0 mm 719.00 W/m2
15:55 18.1 °C 10.0 °C 1007.0 hPa WNW 20.9 km/h 20.9 km/h 59% 0.0 mm 156.00 W/m2
16:00 17.4 °C 9.8 °C 1007.3 hPa West 6.4 km/h 14.5 km/h 61% 0.0 mm 163.00 W/m2
16:05 17.0 °C 9.7 °C 1007.3 hPa South 7.9 km/h 17.7 km/h 62% 0.0 mm 84.00 W/m2
16:10 16.8 °C 10.0 °C 1007.0 hPa SSW 3.2 km/h 19.3 km/h 64% 0.3 mm 98.00 W/m2
16:15 16.6 °C 10.0 °C 1007.3 hPa SW 16.3 km/h 17.7 km/h 65% 0.3 mm 91.00 W/m2
16:20 16.4 °C 9.8 °C 1007.3 hPa SSW 11.1 km/h 16.1 km/h 65% 0.3 mm 148.00 W/m2
16:25 16.6 °C 10.2 °C 1007.3 hPa WSW 1.4 km/h 9.7 km/h 66% 0.3 mm 294.00 W/m2
16:30 17.5 °C 10.6 °C 1007.3 hPa SSW 16.3 km/h 19.3 km/h 64% 0.3 mm 677.00 W/m2
16:35 17.5 °C 9.9 °C 1007.3 hPa SSW 9.7 km/h 24.1 km/h 61% 0.3 mm 577.00 W/m2
16:40 17.4 °C 9.8 °C 1007.3 hPa NW 4.7 km/h 12.9 km/h 61% 0.3 mm 271.00 W/m2
16:45 17.4 °C 9.8 °C 1007.3 hPa SW 7.9 km/h 20.9 km/h 61% 0.3 mm 202.00 W/m2
16:50 17.1 °C 9.8 °C 1007.3 hPa SSW 13.0 km/h 27.4 km/h 62% 0.3 mm 237.00 W/m2
16:55 17.0 °C 9.4 °C 1007.3 hPa South 6.4 km/h 12.9 km/h 61% 0.3 mm 404.00 W/m2
17:00 17.2 °C 9.9 °C 1007.7 hPa SSW 6.4 km/h 9.7 km/h 62% 0.3 mm 207.00 W/m2
17:05 17.1 °C 9.8 °C 1007.3 hPa WNW 17.7 km/h 20.9 km/h 62% 0.3 mm 179.00 W/m2
17:10 16.8 °C 9.7 °C 1007.7 hPa South 11.1 km/h 12.9 km/h 63% 0.0 mm 125.00 W/m2
17:15 16.8 °C 10.0 °C 1007.7 hPa WSW 3.2 km/h 14.5 km/h 64% 0.0 mm 188.00 W/m2
17:20 17.2 °C 9.6 °C 1007.7 hPa WSW 16.3 km/h 25.7 km/h 61% 0.0 mm 141.00 W/m2
17:25 17.2 °C 9.9 °C 1007.7 hPa SW 9.7 km/h 19.3 km/h 62% 0.0 mm 373.00 W/m2
17:30 17.1 °C 9.5 °C 1007.7 hPa South 11.1 km/h 25.7 km/h 61% 0.0 mm 439.00 W/m2
17:35 17.1 °C 9.5 °C 1007.7 hPa West 16.3 km/h 22.5 km/h 61% 0.0 mm 116.00 W/m2
17:40 16.8 °C 9.2 °C 1007.7 hPa SSW 11.1 km/h 27.4 km/h 61% 0.0 mm 162.00 W/m2
17:45 16.8 °C 9.5 °C 1007.3 hPa SSE 9.7 km/h 22.5 km/h 62% 0.0 mm 399.00 W/m2
17:50 17.0 °C 9.7 °C 1007.7 hPa SW 20.9 km/h 27.4 km/h 62% 0.3 mm 336.00 W/m2
17:55 16.9 °C 9.8 °C 1007.7 hPa SSW 14.3 km/h 19.3 km/h 63% 0.3 mm 93.00 W/m2
18:00 16.7 °C 9.9 °C 1007.7 hPa WNW 6.4 km/h 22.5 km/h 64% 0.3 mm 118.00 W/m2
18:05 16.7 °C 9.9 °C 1007.7 hPa SSW 6.4 km/h 17.7 km/h 64% 0.3 mm 306.00 W/m2
18:10 16.8 °C 9.7 °C 1007.7 hPa West 19.5 km/h 22.5 km/h 63% 0.3 mm 297.00 W/m2
18:15 16.8 °C 9.5 °C 1007.7 hPa SSW 7.9 km/h 24.1 km/h 62% 0.3 mm 276.00 W/m2
18:20 16.5 °C 9.2 °C 1008.0 hPa SSW 13.0 km/h 22.5 km/h 62% 0.3 mm 267.00 W/m2
18:25 16.4 °C 9.6 °C 1008.0 hPa SSE 7.9 km/h 12.9 km/h 64% 0.3 mm 246.00 W/m2
18:30 16.4 °C 9.8 °C 1008.0 hPa SW 11.1 km/h 11.3 km/h 65% 0.3 mm 246.00 W/m2
18:35 16.3 °C 9.7 °C 1008.0 hPa South 4.7 km/h 17.7 km/h 65% 0.3 mm 232.00 W/m2
18:40 16.3 °C 9.9 °C 1008.0 hPa SW 9.7 km/h 19.3 km/h 66% 0.3 mm 209.00 W/m2
18:45 16.2 °C 10.1 °C 1008.0 hPa WSW 4.7 km/h 16.1 km/h 67% 0.3 mm 193.00 W/m2
18:50 16.1 °C 10.2 °C 1008.4 hPa SSW 3.2 km/h 14.5 km/h 68% 0.3 mm 172.00 W/m2
18:55 15.8 °C 10.1 °C 1008.4 hPa SSW 7.9 km/h 14.5 km/h 69% 0.3 mm 46.00 W/m2
19:00 15.5 °C 10.1 °C 1008.4 hPa SSW 6.4 km/h 12.9 km/h 70% 0.3 mm 47.00 W/m2
19:05 15.3 °C 9.9 °C 1008.4 hPa SSW 4.7 km/h 20.9 km/h 70% 0.3 mm 35.00 W/m2
19:10 15.2 °C 10.0 °C 1008.4 hPa SW 9.7 km/h 16.1 km/h 71% 0.3 mm 32.00 W/m2
19:15 15.0 °C 9.8 °C 1008.4 hPa SW 3.2 km/h 14.5 km/h 71% 0.3 mm 46.00 W/m2
19:20 14.9 °C 9.9 °C 1008.4 hPa SSW 4.7 km/h 14.5 km/h 72% 0.3 mm 54.00 W/m2
19:25 14.9 °C 9.9 °C 1008.4 hPa SW 14.3 km/h 19.3 km/h 72% 0.3 mm 49.00 W/m2
19:30 14.8 °C 9.8 °C 1008.4 hPa SSW 13.0 km/h 19.3 km/h 72% 0.3 mm 44.00 W/m2
19:35 14.7 °C 9.9 °C 1008.4 hPa SSW 4.7 km/h 14.5 km/h 73% 0.3 mm 32.00 W/m2
19:40 14.6 °C 9.8 °C 1008.7 hPa SW 9.7 km/h 14.5 km/h 73% 0.5 mm 32.00 W/m2
19:45 14.5 °C 9.7 °C 1008.7 hPa South 13.0 km/h 14.5 km/h 73% 0.5 mm 28.00 W/m2
19:50 14.4 °C 9.8 °C 1008.7 hPa SW 3.2 km/h 8.0 km/h 74% 0.3 mm 28.00 W/m2
19:55 14.3 °C 9.7 °C 1008.7 hPa West 3.2 km/h 11.3 km/h 74% 0.3 mm 23.00 W/m2
20:00 14.3 °C 9.7 °C 1008.7 hPa SSW 13.0 km/h 17.7 km/h 74% 0.3 mm 21.00 W/m2
20:05 14.2 °C 9.8 °C 1008.7 hPa SW 4.7 km/h 9.7 km/h 75% 0.3 mm 21.00 W/m2
20:10 14.1 °C 9.7 °C 1008.7 hPa WSW 6.4 km/h 16.1 km/h 75% 0.3 mm 16.00 W/m2
20:15 14.0 °C 9.6 °C 1008.7 hPa SSW 3.2 km/h 6.4 km/h 75% 0.3 mm 12.00 W/m2
20:20 13.9 °C 9.5 °C 1009.0 hPa SW 3.2 km/h 8.0 km/h 75% 0.3 mm 9.00 W/m2
20:25 13.9 °C 9.7 °C 1009.0 hPa SSW 1.4 km/h 6.4 km/h 76% 0.5 mm 7.00 W/m2
20:30 13.8 °C 9.6 °C 1009.0 hPa SW 3.2 km/h 6.4 km/h 76% 0.5 mm 5.00 W/m2
20:35 13.7 °C 9.7 °C 1009.0 hPa SW 6.4 km/h 6.4 km/h 77% 0.5 mm 0.00 W/m2
20:40 13.6 °C 9.6 °C 1009.0 hPa Calm   11.3 km/h 77% 0.3 mm 0.00 W/m2
20:45 13.5 °C 9.5 °C 1009.0 hPa SW 4.7 km/h 9.7 km/h 77% 0.3 mm 0.00 W/m2
20:50 13.4 °C 9.4 °C 1009.0 hPa SSW 3.2 km/h 8.0 km/h 77% 0.3 mm 0.00 W/m2
20:55 13.3 °C 9.5 °C 1009.4 hPa Calm   6.4 km/h 78% 0.3 mm 0.00 W/m2
21:00 13.2 °C 9.4 °C 1009.4 hPa SSW 6.4 km/h 8.0 km/h 78% 0.3 mm 0.00 W/m2
21:05 13.1 °C 9.4 °C 1009.4 hPa SW 3.2 km/h 8.0 km/h 78% 0.3 mm 0.00 W/m2
21:10 13.0 °C 9.3 °C 1009.4 hPa SSW 3.2 km/h 6.4 km/h 78% 0.5 mm 0.00 W/m2
21:15 12.9 °C 9.2 °C 1009.4 hPa SW 4.7 km/h 8.0 km/h 78% 0.5 mm 0.00 W/m2
21:20 12.8 °C 9.2 °C 1009.4 hPa SW 3.2 km/h 6.4 km/h 79% 0.5 mm 0.00 W/m2
21:25 12.8 °C 9.2 °C 1009.4 hPa SW 4.7 km/h 9.7 km/h 79% 0.3 mm 0.00 W/m2
Westerhope, Newcastle upon Tyne, UK
Compliments of Weather Underground - 4 mb